Terminal Aerodrome Forecast
Issued by NWS

Home | Current Version | Previous Version | Text Only | Print | Product List | Glossary On
Versions: 1 2 3 4 5 6 7 8 9 10 11 12 13 14
000
FTUS42 KGSP 280859 AAA
TAFAND
TAF AMD
KAND 280859Z 2809/2906 26004KT P6SM SCT120 OVC250
     FM281500 25006KT P6SM SCT060 BKN250
     FM281800 25011KT P6SM BKN060 PROB30 2818/2824 4SM -TSRA
      OVC025CB
     FM290100 24007KT P6SM BKN250=

USA.gov is the U.S. government's official web portal to all federal, state and local government web resources and services.